Terminal Aerodrome Forecast
Issued by NWS Memphis, TN

Home | Current Version | Previous Version | Text Only | Print | Product List | Glossary On
Versions: 1 2 3 4 5 6 7 8 9 10 11 12 13 14 15 16 17 18 19 20 21 22 23 24 25 26 27 28 29 30 31 32 33 34 35 36 37 38 39
000
FTUS44 KMEG 261508 AAA
TAFMEM
TAF AMD
KMEM 261508Z 2615/2712 22010G15KT P6SM BKN014 OVC080
     FM261600 21012G18KT P6SM BKN018 BKN080
     FM261800 20014G20KT P6SM BKN025 BKN250
     FM262200 19012KT P6SM SCT035 BKN250
     FM270600 19007KT P6SM SCT005=

USA.gov is the U.S. government's official web portal to all federal, state and local government web resources and services.